DNIB

Ibadan Airport

Airport
ICAO code
DNIB
IATA Code
IBA
Summary
ICAO Region
AFI
ICAO Territory
Location

Ibadan, Oyo State

Serving
Ibadan
Elevation
728 ft
Coordinates
7° 21' 35" N , 3° 58' 33" E
KCC
Metar
Observation
DNIB 271300Z 19003KT 9999 BKN015 34/23 Q1008
Station
Ibadan
Date/Time
2023-01-27 13:00:00
Wind direction
190°
Wind speed
03 kts
Lowest cloud amount
broken clouds
Temperature
34°C
Dew point
23°C
Humidity
52%
QNH
1008 hPa
Weather condition
n/a

Ibadan Airport is an airport serving Ibadan, the capital of the Oyo State of Nigeria.

Climatology

Tropical savanna climate (Köppen climate classification Aw)

Runways

Designator Length Width Surface Rops
5/23 2400 45 ASP No/No

Airport map

Aerial View

SKYbrary Partners:

Safety knowledge contributed by: